sensor_id;sensor_type;location;lat;lon;timestamp;pressure;altitude;pressure_sealevel;temperature;humidity
9695;BME280;4690;52.422;13.486;2023-02-02T00:04:26;100525.31;;;5.18;82.50
9695;BME280;4690;52.422;13.486;2023-02-02T00:06:53;100533.53;;;5.31;81.66
9695;BME280;4690;52.422;13.486;2023-02-02T00:09:19;100520.56;;;5.27;81.84
9695;BME280;4690;52.422;13.486;2023-02-02T00:11:47;100511.63;;;5.33;81.54
9695;BME280;4690;52.422;13.486;2023-02-02T00:14:14;100506.66;;;5.43;81.19
9695;BME280;4690;52.422;13.486;2023-02-02T00:16:52;100517.06;;;5.33;81.70
9695;BME280;4690;52.422;13.486;2023-02-02T00:19:22;100493.69;;;5.38;81.05
9695;BME280;4690;52.422;13.486;2023-02-02T00:21:52;100496.41;;;5.38;80.54
9695;BME280;4690;52.422;13.486;2023-02-02T00:24:19;100520.88;;;5.45;80.27
9695;BME280;4690;52.422;13.486;2023-02-02T00:26:49;100517.84;;;5.61;79.93
9695;BME280;4690;52.422;13.486;2023-02-02T00:29:25;100503.88;;;5.71;78.99
9695;BME280;4690;52.422;13.486;2023-02-02T00:31:51;100510.91;;;5.52;80.51
9695;BME280;4690;52.422;13.486;2023-02-02T00:34:18;100503.84;;;5.58;79.92
9695;BME280;4690;52.422;13.486;2023-02-02T00:36:45;100496.13;;;5.61;80.48
9695;BME280;4690;52.422;13.486;2023-02-02T00:39:18;100489.72;;;5.41;80.50
9695;BME280;4690;52.422;13.486;2023-02-02T00:41:45;100496.78;;;5.70;80.62
9695;BME280;4690;52.422;13.486;2023-02-02T00:44:11;100487.13;;;5.61;79.98
9695;BME280;4690;52.422;13.486;2023-02-02T00:46:56;100494.63;;;5.59;80.25
9695;BME280;4690;52.422;13.486;2023-02-02T00:49:22;100495.38;;;5.81;79.35
9695;BME280;4690;52.422;13.486;2023-02-02T00:51:48;100485.09;;;5.76;80.05
9695;BME280;4690;52.422;13.486;2023-02-02T00:54:13;100480.06;;;5.73;80.16
9695;BME280;4690;52.422;13.486;2023-02-02T00:56:40;100488.81;;;6.03;79.24
9695;BME280;4690;52.422;13.486;2023-02-02T00:59:06;100476.47;;;6.01;78.73
9695;BME280;4690;52.422;13.486;2023-02-02T01:01:32;100483.94;;;5.92;79.08
9695;BME280;4690;52.422;13.486;2023-02-02T01:03:57;100486.91;;;5.97;79.36
9695;BME280;4690;52.422;13.486;2023-02-02T01:06:23;100497.66;;;5.77;80.15
9695;BME280;4690;52.422;13.486;2023-02-02T01:08:50;100487.19;;;5.74;81.40
9695;BME280;4690;52.422;13.486;2023-02-02T01:11:16;100496.09;;;5.55;81.81
9695;BME280;4690;52.422;13.486;2023-02-02T01:13:43;100518.13;;;5.73;82.04
9695;BME280;4690;52.422;13.486;2023-02-02T01:16:10;100520.59;;;5.68;81.98
9695;BME280;4690;52.422;13.486;2023-02-02T01:18:35;100500.75;;;5.74;82.83
9695;BME280;4690;52.422;13.486;2023-02-02T01:21:07;100494.66;;;5.66;84.42
9695;BME280;4690;52.422;13.486;2023-02-02T01:23:34;100503.53;;;5.81;83.75
9695;BME280;4690;52.422;13.486;2023-02-02T01:26:03;100491.00;;;5.87;83.24
9695;BME280;4690;52.422;13.486;2023-02-02T01:28:30;100494.50;;;5.74;84.39
9695;BME280;4690;52.422;13.486;2023-02-02T01:30:57;100506.84;;;5.76;84.52
9695;BME280;4690;52.422;13.486;2023-02-02T01:33:24;100512.09;;;5.43;85.48
9695;BME280;4690;52.422;13.486;2023-02-02T01:35:53;100516.78;;;5.56;85.78
9695;BME280;4690;52.422;13.486;2023-02-02T01:38:22;100505.34;;;5.67;86.48
9695;BME280;4690;52.422;13.486;2023-02-02T01:40:53;100518.09;;;5.67;85.78
9695;BME280;4690;52.422;13.486;2023-02-02T01:46:25;100496.28;;;5.53;87.79
9695;BME280;4690;52.422;13.486;2023-02-02T01:49:13;100519.09;;;5.59;87.71
9695;BME280;4690;52.422;13.486;2023-02-02T01:51:54;100505.66;;;5.51;87.52
9695;BME280;4690;52.422;13.486;2023-02-02T01:54:35;100512.88;;;5.37;87.93
9695;BME280;4690;52.422;13.486;2023-02-02T01:57:32;100505.63;;;5.44;87.00
9695;BME280;4690;52.422;13.486;2023-02-02T01:59:59;100508.97;;;5.46;87.37
9695;BME280;4690;52.422;13.486;2023-02-02T02:02:28;100523.34;;;5.40;87.94
9695;BME280;4690;52.422;13.486;2023-02-02T02:04:55;100529.63;;;5.40;89.12
9695;BME280;4690;52.422;13.486;2023-02-02T02:07:22;100529.69;;;5.47;89.20
9695;BME280;4690;52.422;13.486;2023-02-02T02:09:48;100516.56;;;5.57;89.72
9695;BME280;4690;52.422;13.486;2023-02-02T02:12:15;100529.53;;;5.55;90.58
9695;BME280;4690;52.422;13.486;2023-02-02T02:14:44;100526.00;;;5.55;90.66
9695;BME280;4690;52.422;13.486;2023-02-02T02:21:13;100529.28;;;5.50;91.25
9695;BME280;4690;52.422;13.486;2023-02-02T02:34:13;100546.19;;;5.46;91.36
9695;BME280;4690;52.422;13.486;2023-02-02T02:39:31;100557.97;;;5.59;90.66
9695;BME280;4690;52.422;13.486;2023-02-02T02:42:06;100544.53;;;5.51;90.13
9695;BME280;4690;52.422;13.486;2023-02-02T02:44:35;100550.22;;;5.56;90.96
9695;BME280;4690;52.422;13.486;2023-02-02T02:47:02;100551.59;;;5.74;90.77
9695;BME280;4690;52.422;13.486;2023-02-02T02:49:28;100565.44;;;5.79;89.49
9695;BME280;4690;52.422;13.486;2023-02-02T02:51:55;100564.31;;;5.67;89.01
9695;BME280;4690;52.422;13.486;2023-02-02T03:08:28;100571.28;;;5.82;87.62
9695;BME280;4690;52.422;13.486;2023-02-02T03:10:58;100567.72;;;5.75;87.75
9695;BME280;4690;52.422;13.486;2023-02-02T03:13:27;100579.59;;;5.74;86.71
9695;BME280;4690;52.422;13.486;2023-02-02T03:15:54;100577.91;;;5.67;86.85
9695;BME280;4690;52.422;13.486;2023-02-02T03:18:24;100578.50;;;5.62;87.42
9695;BME280;4690;52.422;13.486;2023-02-02T03:20:51;100592.22;;;5.82;86.98
9695;BME280;4690;52.422;13.486;2023-02-02T03:23:17;100599.44;;;5.96;86.46
9695;BME280;4690;52.422;13.486;2023-02-02T03:25:44;100608.97;;;5.85;86.08
9695;BME280;4690;52.422;13.486;2023-02-02T03:28:10;100598.81;;;5.94;85.55
9695;BME280;4690;52.422;13.486;2023-02-02T03:30:39;100612.63;;;5.99;85.31
9695;BME280;4690;52.422;13.486;2023-02-02T03:33:06;100620.19;;;5.97;84.90
9695;BME280;4690;52.422;13.486;2023-02-02T03:35:32;100635.63;;;5.97;84.17
9695;BME280;4690;52.422;13.486;2023-02-02T03:37:58;100618.72;;;6.01;84.22
9695;BME280;4690;52.422;13.486;2023-02-02T03:40:23;100638.00;;;6.00;84.64
9695;BME280;4690;52.422;13.486;2023-02-02T03:42:49;100633.06;;;5.89;85.27
9695;BME280;4690;52.422;13.486;2023-02-02T03:45:15;100646.66;;;5.89;84.93
9695;BME280;4690;52.422;13.486;2023-02-02T03:47:41;100655.13;;;6.00;84.55
9695;BME280;4690;52.422;13.486;2023-02-02T03:50:08;100649.94;;;6.05;84.08
9695;BME280;4690;52.422;13.486;2023-02-02T03:52:34;100662.41;;;5.93;84.09
9695;BME280;4690;52.422;13.486;2023-02-02T03:54:59;100662.09;;;6.10;84.25
9695;BME280;4690;52.422;13.486;2023-02-02T03:57:26;100673.72;;;5.97;84.19
9695;BME280;4690;52.422;13.486;2023-02-02T03:59:51;100671.50;;;6.07;83.58
9695;BME280;4690;52.422;13.486;2023-02-02T04:02:17;100670.69;;;6.13;82.91
9695;BME280;4690;52.422;13.486;2023-02-02T04:04:43;100686.59;;;6.10;82.85
9695;BME280;4690;52.422;13.486;2023-02-02T04:07:09;100689.06;;;6.04;83.13
9695;BME280;4690;52.422;13.486;2023-02-02T04:09:35;100679.13;;;6.25;82.44
9695;BME280;4690;52.422;13.486;2023-02-02T04:12:00;100687.22;;;6.12;82.65
9695;BME280;4690;52.422;13.486;2023-02-02T04:14:26;100707.91;;;6.06;82.41
9695;BME280;4690;52.422;13.486;2023-02-02T04:16:52;100705.06;;;6.21;82.07
9695;BME280;4690;52.422;13.486;2023-02-02T04:19:18;100718.44;;;6.16;82.09
9695;BME280;4690;52.422;13.486;2023-02-02T04:21:44;100717.78;;;6.14;82.41
9695;BME280;4690;52.422;13.486;2023-02-02T04:24:11;100735.50;;;6.03;82.16
9695;BME280;4690;52.422;13.486;2023-02-02T04:26:38;100731.84;;;6.17;81.60
9695;BME280;4690;52.422;13.486;2023-02-02T04:29:04;100736.06;;;6.20;81.49
9695;BME280;4690;52.422;13.486;2023-02-02T04:31:29;100747.41;;;6.30;81.93
9695;BME280;4690;52.422;13.486;2023-02-02T04:33:57;100744.06;;;6.28;81.50
9695;BME280;4690;52.422;13.486;2023-02-02T04:36:23;100753.50;;;6.32;81.53
9695;BME280;4690;52.422;13.486;2023-02-02T04:38:50;100750.97;;;6.31;82.51
9695;BME280;4690;52.422;13.486;2023-02-02T04:41:16;100752.59;;;6.25;82.01
9695;BME280;4690;52.422;13.486;2023-02-02T04:43:45;100761.81;;;6.24;82.80
9695;BME280;4690;52.422;13.486;2023-02-02T04:46:12;100757.19;;;5.96;83.05
9695;BME280;4690;52.422;13.486;2023-02-02T04:48:39;100756.91;;;6.13;82.84
9695;BME280;4690;52.422;13.486;2023-02-02T04:51:12;100766.41;;;6.23;82.57
9695;BME280;4690;52.422;13.486;2023-02-02T04:53:40;100773.75;;;6.23;81.44
9695;BME280;4690;52.422;13.486;2023-02-02T04:56:10;100772.31;;;6.27;82.46
9695;BME280;4690;52.422;13.486;2023-02-02T04:58:37;100780.69;;;6.25;81.91
9695;BME280;4690;52.422;13.486;2023-02-02T05:01:16;100788.06;;;6.10;81.94
9695;BME280;4690;52.422;13.486;2023-02-02T05:03:42;100774.72;;;6.15;82.30
9695;BME280;4690;52.422;13.486;2023-02-02T05:06:08;100779.59;;;5.98;83.17
9695;BME280;4690;52.422;13.486;2023-02-02T05:08:35;100787.63;;;6.06;82.23
9695;BME280;4690;52.422;13.486;2023-02-02T05:11:13;100800.84;;;6.10;83.29
9695;BME280;4690;52.422;13.486;2023-02-02T05:13:44;100807.50;;;6.07;83.14
9695;BME280;4690;52.422;13.486;2023-02-02T05:16:10;100803.03;;;6.21;82.43
9695;BME280;4690;52.422;13.486;2023-02-02T05:18:36;100809.91;;;6.17;82.50
9695;BME280;4690;52.422;13.486;2023-02-02T05:21:02;100814.88;;;6.13;83.67
9695;BME280;4690;52.422;13.486;2023-02-02T05:23:29;100837.16;;;6.02;84.64
9695;BME280;4690;52.422;13.486;2023-02-02T05:25:56;100838.94;;;6.10;84.28
9695;BME280;4690;52.422;13.486;2023-02-02T05:28:23;100848.19;;;6.15;84.05
9695;BME280;4690;52.422;13.486;2023-02-02T05:30:49;100852.25;;;6.04;84.02
9695;BME280;4690;52.422;13.486;2023-02-02T05:33:16;100853.56;;;6.09;85.71
9695;BME280;4690;52.422;13.486;2023-02-02T05:35:48;100861.53;;;6.10;85.31
9695;BME280;4690;52.422;13.486;2023-02-02T05:38:15;100857.41;;;6.14;85.79
9695;BME280;4690;52.422;13.486;2023-02-02T05:40:41;100865.47;;;6.07;86.04
9695;BME280;4690;52.422;13.486;2023-02-02T05:43:07;100860.47;;;5.90;85.21
9695;BME280;4690;52.422;13.486;2023-02-02T05:45:32;100878.38;;;5.99;86.07
9695;BME280;4690;52.422;13.486;2023-02-02T05:47:58;100876.13;;;5.88;85.79
9695;BME280;4690;52.422;13.486;2023-02-02T05:50:24;100881.00;;;5.92;86.28
9695;BME280;4690;52.422;13.486;2023-02-02T05:52:50;100869.19;;;5.85;85.67
9695;BME280;4690;52.422;13.486;2023-02-02T05:55:16;100881.38;;;5.89;85.78
9695;BME280;4690;52.422;13.486;2023-02-02T05:57:44;100885.88;;;5.97;85.07
9695;BME280;4690;52.422;13.486;2023-02-02T06:00:11;100875.38;;;5.94;84.91
9695;BME280;4690;52.422;13.486;2023-02-02T06:02:37;100897.22;;;6.00;84.98
9695;BME280;4690;52.422;13.486;2023-02-02T06:05:03;100877.91;;;5.95;83.20
9695;BME280;4690;52.422;13.486;2023-02-02T06:07:28;100900.72;;;5.94;83.97
9695;BME280;4690;52.422;13.486;2023-02-02T06:09:54;100900.72;;;5.94;83.40
9695;BME280;4690;52.422;13.486;2023-02-02T06:12:20;100896.56;;;5.98;83.42
9695;BME280;4690;52.422;13.486;2023-02-02T06:14:46;100901.34;;;5.96;83.41
9695;BME280;4690;52.422;13.486;2023-02-02T06:17:11;100912.50;;;6.01;83.35
9695;BME280;4690;52.422;13.486;2023-02-02T06:19:37;100918.47;;;6.12;83.07
9695;BME280;4690;52.422;13.486;2023-02-02T06:22:03;100929.81;;;6.15;82.98
9695;BME280;4690;52.422;13.486;2023-02-02T06:24:29;100934.31;;;6.08;82.75
9695;BME280;4690;52.422;13.486;2023-02-02T06:26:55;100929.38;;;6.12;83.07
9695;BME280;4690;52.422;13.486;2023-02-02T06:29:20;100940.25;;;6.12;82.44
9695;BME280;4690;52.422;13.486;2023-02-02T06:31:46;100934.31;;;6.08;82.14
9695;BME280;4690;52.422;13.486;2023-02-02T06:34:12;100941.09;;;6.12;82.50
9695;BME280;4690;52.422;13.486;2023-02-02T06:36:40;100943.16;;;6.10;82.02
9695;BME280;4690;52.422;13.486;2023-02-02T06:39:06;100944.53;;;6.21;81.37
9695;BME280;4690;52.422;13.486;2023-02-02T06:41:33;100955.53;;;6.13;81.27
9695;BME280;4690;52.422;13.486;2023-02-02T06:43:59;100950.53;;;6.16;81.39
9695;BME280;4690;52.422;13.486;2023-02-02T06:46:25;100955.53;;;6.13;81.30
9695;BME280;4690;52.422;13.486;2023-02-02T06:48:51;100970.44;;;6.17;80.73
9695;BME280;4690;52.422;13.486;2023-02-02T06:51:18;100965.44;;;6.20;80.58
9695;BME280;4690;52.422;13.486;2023-02-02T06:53:47;100975.63;;;6.12;80.73
9695;BME280;4690;52.422;13.486;2023-02-02T06:56:14;100992.22;;;6.17;80.21
9695;BME280;4690;52.422;13.486;2023-02-02T06:58:40;100995.13;;;6.15;79.16
9695;BME280;4690;52.422;13.486;2023-02-02T07:01:11;100992.22;;;6.17;79.09
9695;BME280;4690;52.422;13.486;2023-02-02T07:03:38;100990.91;;;6.13;79.25
9695;BME280;4690;52.422;13.486;2023-02-02T07:06:23;101000.72;;;6.14;78.46
9695;BME280;4690;52.422;13.486;2023-02-02T07:08:50;101012.88;;;5.96;78.38
9695;BME280;4690;52.422;13.486;2023-02-02T07:11:17;101005.66;;;6.03;77.89
9695;BME280;4690;52.422;13.486;2023-02-02T07:13:45;100997.66;;;6.17;77.48
9695;BME280;4690;52.422;13.486;2023-02-02T07:16:12;101013.44;;;6.06;76.89
9695;BME280;4690;52.422;13.486;2023-02-02T07:18:38;101023.38;;;6.14;77.06
9695;BME280;4690;52.422;13.486;2023-02-02T07:21:06;101030.47;;;6.15;76.46
9695;BME280;4690;52.422;13.486;2023-02-02T07:23:33;101043.78;;;6.25;75.59
9695;BME280;4690;52.422;13.486;2023-02-02T07:26:10;101053.53;;;6.34;74.92
9695;BME280;4690;52.422;13.486;2023-02-02T07:28:36;101046.13;;;6.28;74.59
9695;BME280;4690;52.422;13.486;2023-02-02T07:31:21;101050.53;;;6.29;75.44
9695;BME280;4690;52.422;13.486;2023-02-02T07:33:48;101059.81;;;6.35;75.72
9695;BME280;4690;52.422;13.486;2023-02-02T07:36:18;101070.59;;;6.43;75.19
9695;BME280;4690;52.422;13.486;2023-02-02T07:38:46;101067.28;;;6.47;74.85
9695;BME280;4690;52.422;13.486;2023-02-02T07:41:13;101064.31;;;6.42;74.99
9695;BME280;4690;52.422;13.486;2023-02-02T07:43:40;101077.16;;;6.48;74.65
9695;BME280;4690;52.422;13.486;2023-02-02T07:46:09;101072.66;;;6.41;74.39
9695;BME280;4690;52.422;13.486;2023-02-02T07:48:35;101078.41;;;6.31;75.04
9695;BME280;4690;52.422;13.486;2023-02-02T07:51:05;101072.09;;;6.31;75.35
9695;BME280;4690;52.422;13.486;2023-02-02T07:53:32;101085.81;;;6.37;75.00
9695;BME280;4690;52.422;13.486;2023-02-02T07:56:13;101084.09;;;6.36;74.61
9695;BME280;4690;52.422;13.486;2023-02-02T07:58:40;101086.47;;;6.39;75.31
9695;BME280;4690;52.422;13.486;2023-02-02T08:01:09;101089.94;;;6.33;75.43
9695;BME280;4690;52.422;13.486;2023-02-02T08:03:36;101090.41;;;6.37;75.78
9695;BME280;4690;52.422;13.486;2023-02-02T08:06:17;101097.47;;;6.31;76.58
9695;BME280;4690;52.422;13.486;2023-02-02T08:08:43;101110.09;;;6.54;76.57
9695;BME280;4690;52.422;13.486;2023-02-02T08:11:12;101106.47;;;6.68;77.23
9695;BME280;4690;52.422;13.486;2023-02-02T08:13:39;101111.69;;;6.84;76.94
9695;BME280;4690;52.422;13.486;2023-02-02T08:16:06;101111.09;;;6.89;76.66
9695;BME280;4690;52.422;13.486;2023-02-02T08:18:33;101117.38;;;6.89;76.77
9695;BME280;4690;52.422;13.486;2023-02-02T08:21:01;101130.00;;;6.76;77.16
9695;BME280;4690;52.422;13.486;2023-02-02T08:23:27;101136.59;;;7.03;76.60
9695;BME280;4690;52.422;13.486;2023-02-02T08:26:03;101140.13;;;7.18;75.90
9695;BME280;4690;52.422;13.486;2023-02-02T08:28:29;101135.69;;;7.17;75.70
9695;BME280;4690;52.422;13.486;2023-02-02T08:30:55;101129.59;;;7.36;75.58
9695;BME280;4690;52.422;13.486;2023-02-02T08:33:20;101129.44;;;7.45;74.67
9695;BME280;4690;52.422;13.486;2023-02-02T08:35:46;101142.16;;;7.37;75.02
9695;BME280;4690;52.422;13.486;2023-02-02T08:38:12;101143.22;;;7.36;75.30
9695;BME280;4690;52.422;13.486;2023-02-02T08:40:38;101147.25;;;7.40;75.49
9695;BME280;4690;52.422;13.486;2023-02-02T08:43:03;101146.25;;;7.76;74.31
9695;BME280;4690;52.422;13.486;2023-02-02T08:45:30;101157.28;;;7.90;73.67
9695;BME280;4690;52.422;13.486;2023-02-02T08:47:56;101151.94;;;8.09;72.47
9695;BME280;4690;52.422;13.486;2023-02-02T08:50:22;101155.06;;;8.00;71.72
9695;BME280;4690;52.422;13.486;2023-02-02T08:52:48;101153.34;;;7.99;71.59
9695;BME280;4690;52.422;13.486;2023-02-02T08:55:14;101151.94;;;7.75;72.13
9695;BME280;4690;52.422;13.486;2023-02-02T08:57:40;101161.47;;;7.85;72.06
9695;BME280;4690;52.422;13.486;2023-02-02T09:00:06;101157.56;;;8.01;71.57
9695;BME280;4690;52.422;13.486;2023-02-02T09:02:32;101159.78;;;7.91;70.36
9695;BME280;4690;52.422;13.486;2023-02-02T09:04:58;101160.59;;;7.85;71.14
9695;BME280;4690;52.422;13.486;2023-02-02T09:07:24;101158.91;;;7.84;70.81
9695;BME280;4690;52.422;13.486;2023-02-02T09:09:49;101165.06;;;7.64;71.62
9695;BME280;4690;52.422;13.486;2023-02-02T09:12:17;101172.38;;;7.57;72.21
9695;BME280;4690;52.422;13.486;2023-02-02T09:14:42;101176.75;;;7.58;71.61
9695;BME280;4690;52.422;13.486;2023-02-02T09:17:08;101173.75;;;7.75;71.98
9695;BME280;4690;52.422;13.486;2023-02-02T09:19:34;101179.91;;;7.83;71.90
9695;BME280;4690;52.422;13.486;2023-02-02T09:22:00;101194.69;;;7.96;71.17
9695;BME280;4690;52.422;13.486;2023-02-02T09:24:25;101198.53;;;8.08;70.84
9695;BME280;4690;52.422;13.486;2023-02-02T09:26:51;101192.00;;;8.02;69.53
9695;BME280;4690;52.422;13.486;2023-02-02T09:29:17;101203.97;;;8.01;69.66
9695;BME280;4690;52.422;13.486;2023-02-02T09:31:43;101194.72;;;8.02;70.16
9695;BME280;4690;52.422;13.486;2023-02-02T09:34:13;101197.81;;;7.93;70.20
9695;BME280;4690;52.422;13.486;2023-02-02T09:36:40;101203.97;;;8.01;69.45
9695;BME280;4690;52.422;13.486;2023-02-02T09:39:12;101209.63;;;8.00;69.72
9695;BME280;4690;52.422;13.486;2023-02-02T09:44:52;101226.81;;;7.72;69.45
9695;BME280;4690;52.422;13.486;2023-02-02T09:50:51;101239.41;;;7.73;68.79
9695;BME280;4690;52.422;13.486;2023-02-02T09:56:12;101233.28;;;7.93;69.95
9695;BME280;4690;52.422;13.486;2023-02-02T09:58:51;101233.78;;;8.03;67.84
9695;BME280;4690;52.422;13.486;2023-02-02T10:01:29;101244.16;;;8.14;67.91
9695;BME280;4690;52.422;13.486;2023-02-02T10:06:42;101232.63;;;8.47;67.46
9695;BME280;4690;52.422;13.486;2023-02-02T10:12:41;101221.16;;;8.58;66.40
9695;BME280;4690;52.422;13.486;2023-02-02T10:21:37;101252.22;;;8.50;65.45
9695;BME280;4690;52.422;13.486;2023-02-02T10:24:27;101249.38;;;8.37;65.58
9695;BME280;4690;52.422;13.486;2023-02-02T10:27:16;101248.53;;;8.37;65.29
9695;BME280;4690;52.422;13.486;2023-02-02T10:30:00;101242.06;;;8.44;63.78
9695;BME280;4690;52.422;13.486;2023-02-02T10:32:34;101238.44;;;8.65;62.08
9695;BME280;4690;52.422;13.486;2023-02-02T10:40:46;101256.06;;;8.35;63.12
9695;BME280;4690;52.422;13.486;2023-02-02T10:46:40;101272.75;;;8.40;61.56
9695;BME280;4690;52.422;13.486;2023-02-02T10:49:30;101268.22;;;8.32;61.77
9695;BME280;4690;52.422;13.486;2023-02-02T10:55:03;101273.72;;;8.67;60.71
9695;BME280;4690;52.422;13.486;2023-02-02T11:03:03;101289.22;;;8.94;58.62
9695;BME280;4690;52.422;13.486;2023-02-02T11:05:31;101290.72;;;8.97;57.58
9695;BME280;4690;52.422;13.486;2023-02-02T11:08:23;101290.13;;;9.08;58.23
9695;BME280;4690;52.422;13.486;2023-02-02T11:10:53;101293.28;;;9.05;55.25
9695;BME280;4690;52.422;13.486;2023-02-02T11:13:46;101288.88;;;9.04;56.95
9695;BME280;4690;52.422;13.486;2023-02-02T11:18:42;101309.94;;;9.10;58.05
9695;BME280;4690;52.422;13.486;2023-02-02T11:21:33;101328.56;;;8.93;57.55
9695;BME280;4690;52.422;13.486;2023-02-02T11:27:13;101325.53;;;8.82;58.09
9695;BME280;4690;52.422;13.486;2023-02-02T11:29:41;101324.81;;;9.01;57.17
9695;BME280;4690;52.422;13.486;2023-02-02T11:32:28;101327.19;;;9.17;56.64
9695;BME280;4690;52.422;13.486;2023-02-02T11:35:32;101332.13;;;9.42;54.50
9695;BME280;4690;52.422;13.486;2023-02-02T11:38:14;101342.97;;;9.70;52.96
9695;BME280;4690;52.422;13.486;2023-02-02T11:41:04;101337.91;;;9.67;53.00
9695;BME280;4690;52.422;13.486;2023-02-02T11:43:53;101332.06;;;9.83;53.49
9695;BME280;4690;52.422;13.486;2023-02-02T11:46:28;101332.44;;;9.67;53.07
9695;BME280;4690;52.422;13.486;2023-02-02T11:49:02;101332.44;;;9.74;53.46
9695;BME280;4690;52.422;13.486;2023-02-02T11:51:30;101347.22;;;9.93;54.13
9695;BME280;4690;52.422;13.486;2023-02-02T11:54:25;101337.06;;;9.67;54.98
9695;BME280;4690;52.422;13.486;2023-02-02T11:56:57;101349.50;;;9.69;54.17
9695;BME280;4690;52.422;13.486;2023-02-02T11:59:44;101345.50;;;9.78;54.87
9695;BME280;4690;52.422;13.486;2023-02-02T12:02:28;101352.06;;;9.84;53.94
9695;BME280;4690;52.422;13.486;2023-02-02T12:07:35;101351.63;;;9.87;54.72
9695;BME280;4690;52.422;13.486;2023-02-02T12:10:37;101368.00;;;9.67;55.29
9695;BME280;4690;52.422;13.486;2023-02-02T12:13:18;101344.97;;;9.35;55.39
9695;BME280;4690;52.422;13.486;2023-02-02T12:24:38;101384.91;;;8.94;63.15
9695;BME280;4690;52.422;13.486;2023-02-02T12:30:21;101404.44;;;8.42;70.26
9695;BME280;4690;52.422;13.486;2023-02-02T12:39:09;101423.31;;;7.79;75.93
9695;BME280;4690;52.422;13.486;2023-02-02T12:42:09;101412.84;;;7.46;77.43
9695;BME280;4690;52.422;13.486;2023-02-02T12:45:19;101403.53;;;7.26;78.28
9695;BME280;4690;52.422;13.486;2023-02-02T12:54:21;101407.19;;;8.42;76.20
9695;BME280;4690;52.422;13.486;2023-02-02T13:03:28;101417.16;;;9.88;69.00
9695;BME280;4690;52.422;13.486;2023-02-02T13:11:54;101430.44;;;9.98;63.35
9695;BME280;4690;52.422;13.486;2023-02-02T13:14:34;101425.38;;;9.95;61.47
9695;BME280;4690;52.422;13.486;2023-02-02T13:17:14;101417.44;;;10.20;59.20
9695;BME280;4690;52.422;13.486;2023-02-02T13:19:50;101428.16;;;10.15;60.25
9695;BME280;4690;52.422;13.486;2023-02-02T13:22:40;101429.28;;;10.41;58.97
9695;BME280;4690;52.422;13.486;2023-02-02T13:25:24;101448.91;;;10.77;56.72
9695;BME280;4690;52.422;13.486;2023-02-02T13:27:52;101446.38;;;10.96;55.72
9695;BME280;4690;52.422;13.486;2023-02-02T13:30:30;101460.94;;;11.10;54.03
9695;BME280;4690;52.422;13.486;2023-02-02T13:33:24;101462.31;;;11.45;52.48
9695;BME280;4690;52.422;13.486;2023-02-02T13:36:13;101459.34;;;11.60;52.72
9695;BME280;4690;52.422;13.486;2023-02-02T13:38:41;101480.50;;;11.47;50.88
9695;BME280;4690;52.422;13.486;2023-02-02T13:41:11;101478.13;;;11.57;50.83
9695;BME280;4690;52.422;13.486;2023-02-02T13:44:00;101485.13;;;11.53;50.27
9695;BME280;4690;52.422;13.486;2023-02-02T13:46:56;101484.53;;;11.17;51.47
9695;BME280;4690;52.422;13.486;2023-02-02T13:49:27;101498.22;;;11.37;51.27
9695;BME280;4690;52.422;13.486;2023-02-02T13:52:46;101488.19;;;11.83;50.44
9695;BME280;4690;52.422;13.486;2023-02-02T13:55:45;101497.63;;;12.14;49.53
9695;BME280;4690;52.422;13.486;2023-02-02T14:01:03;101507.53;;;11.36;50.23
9695;BME280;4690;52.422;13.486;2023-02-02T14:03:39;101513.19;;;11.55;49.87
9695;BME280;4690;52.422;13.486;2023-02-02T14:06:21;101515.50;;;11.58;50.43
9695;BME280;4690;52.422;13.486;2023-02-02T14:08:56;101526.03;;;11.67;49.67
9695;BME280;4690;52.422;13.486;2023-02-02T14:14:20;101543.41;;;11.41;49.76
9695;BME280;4690;52.422;13.486;2023-02-02T14:17:03;101539.16;;;10.66;51.35
9695;BME280;4690;52.422;13.486;2023-02-02T14:22:46;101546.72;;;10.50;51.47
9695;BME280;4690;52.422;13.486;2023-02-02T14:24:51;101549.72;;;10.21;52.55
9695;BME280;4690;52.422;13.486;2023-02-02T14:37:58;101591.81;;;10.06;53.84
9695;BME280;4690;52.422;13.486;2023-02-02T14:41:04;101595.38;;;10.00;54.10
9695;BME280;4690;52.422;13.486;2023-02-02T14:43:45;101607.88;;;9.81;55.10
9695;BME280;4690;52.422;13.486;2023-02-02T14:46:39;101608.31;;;9.57;55.15
9695;BME280;4690;52.422;13.486;2023-02-02T14:49:25;101622.50;;;9.39;55.71
9695;BME280;4690;52.422;13.486;2023-02-02T14:51:55;101635.09;;;9.33;56.59
9695;BME280;4690;52.422;13.486;2023-02-02T14:54:35;101631.19;;;9.21;56.92
9695;BME280;4690;52.422;13.486;2023-02-02T14:57:18;101641.78;;;9.09;56.76
9695;BME280;4690;52.422;13.486;2023-02-02T14:59:47;101652.78;;;8.94;56.89
9695;BME280;4690;52.422;13.486;2023-02-02T15:08:26;101660.03;;;8.66;56.52
9695;BME280;4690;52.422;13.486;2023-02-02T15:11:00;101659.56;;;8.62;57.02
9695;BME280;4690;52.422;13.486;2023-02-02T15:13:34;101673.16;;;8.41;56.76
9695;BME280;4690;52.422;13.486;2023-02-02T15:16:25;101671.56;;;8.46;56.96
9695;BME280;4690;52.422;13.486;2023-02-02T15:19:28;101683.41;;;8.24;54.94
9695;BME280;4690;52.422;13.486;2023-02-02T15:21:55;101687.72;;;7.89;56.09
9695;BME280;4690;52.422;13.486;2023-02-02T15:24:26;101691.59;;;7.94;56.52
9695;BME280;4690;52.422;13.486;2023-02-02T15:26:57;101701.47;;;7.95;55.87
9695;BME280;4690;52.422;13.486;2023-02-02T15:29:43;101707.44;;;7.76;56.29
9695;BME280;4690;52.422;13.486;2023-02-02T15:32:26;101715.69;;;7.68;56.80
9695;BME280;4690;52.422;13.486;2023-02-02T15:34:59;101715.53;;;7.69;56.54
9695;BME280;4690;52.422;13.486;2023-02-02T15:37:36;101724.31;;;7.56;56.40
9695;BME280;4690;52.422;13.486;2023-02-02T15:40:23;101732.50;;;7.56;56.71
9695;BME280;4690;52.422;13.486;2023-02-02T15:43:04;101736.13;;;7.49;56.88
9695;BME280;4690;52.422;13.486;2023-02-02T15:45:37;101744.50;;;7.47;57.50
9695;BME280;4690;52.422;13.486;2023-02-02T15:48:30;101752.75;;;7.39;57.61
9695;BME280;4690;52.422;13.486;2023-02-02T15:51:15;101765.06;;;7.35;58.04
9695;BME280;4690;52.422;13.486;2023-02-02T15:56:36;101772.25;;;6.96;57.25
9695;BME280;4690;52.422;13.486;2023-02-02T15:59:19;101769.19;;;6.91;57.35
9695;BME280;4690;52.422;13.486;2023-02-02T16:04:41;101790.22;;;6.74;57.40
9695;BME280;4690;52.422;13.486;2023-02-02T16:07:26;101795.00;;;6.64;57.85